createdAt,value
2022-08-01T00:00:04.159Z,19.06
2022-08-01T00:01:04.229Z,19.06
2022-08-01T00:02:04.772Z,19.06
2022-08-01T00:03:04.387Z,19.06
2022-08-01T00:04:04.386Z,19.06
2022-08-01T00:05:04.307Z,19.06
2022-08-01T00:06:04.391Z,19.06
2022-08-01T00:07:04.402Z,19.06
2022-08-01T00:08:04.463Z,19.00
2022-08-01T00:09:04.315Z,19.00
2022-08-01T00:10:04.498Z,19.00
2022-08-01T00:11:03.688Z,19.00
2022-08-01T00:12:03.668Z,19.00
2022-08-01T00:13:03.748Z,19.00
2022-08-01T00:14:03.822Z,19.00
2022-08-01T00:15:03.828Z,19.00
2022-08-01T00:16:03.925Z,19.00
2022-08-01T00:17:07.186Z,19.00
2022-08-01T00:18:03.909Z,19.00
2022-08-01T00:19:03.984Z,19.00
2022-08-01T00:20:04.158Z,19.00
2022-08-01T00:21:04.237Z,19.00
2022-08-01T00:22:04.682Z,19.00
2022-08-01T00:23:04.185Z,19.00
2022-08-01T00:24:04.222Z,19.00
2022-08-01T00:25:04.235Z,19.00
2022-08-01T00:26:04.322Z,19.00
2022-08-01T00:27:04.315Z,19.00
2022-08-01T00:28:04.477Z,19.00
2022-08-01T00:29:04.420Z,18.94
2022-08-01T00:30:10.544Z,18.94
2022-08-01T00:31:04.478Z,18.94
2022-08-01T00:32:04.705Z,18.94
2022-08-01T00:33:04.481Z,18.94
2022-08-01T00:34:04.465Z,18.94
2022-08-01T00:35:04.392Z,18.94
2022-08-01T00:36:04.382Z,18.88
2022-08-01T00:37:03.611Z,18.88
2022-08-01T00:38:03.520Z,18.88
2022-08-01T00:39:03.513Z,18.88
2022-08-01T00:40:03.535Z,18.88
2022-08-01T00:41:03.601Z,18.88
2022-08-01T00:42:03.782Z,18.81
2022-08-01T00:43:03.668Z,18.81
2022-08-01T00:44:04.084Z,18.81
2022-08-01T00:45:04.066Z,18.81
2022-08-01T00:46:03.994Z,18.81
2022-08-01T00:47:04.083Z,18.81
2022-08-01T00:48:04.153Z,18.75
2022-08-01T00:49:04.160Z,18.75
2022-08-01T00:50:04.090Z,18.75
2022-08-01T00:51:04.225Z,18.69
2022-08-01T00:52:04.479Z,18.69
2022-08-01T00:53:04.387Z,18.69
2022-08-01T00:54:04.477Z,18.69
2022-08-01T00:55:04.223Z,18.69
2022-08-01T00:56:04.324Z,18.69
2022-08-01T00:57:04.483Z,18.69
2022-08-01T00:58:05.902Z,18.62
2022-08-01T00:59:04.493Z,18.62
2022-08-01T01:00:04.406Z,18.62
2022-08-01T01:01:04.471Z,18.62
2022-08-01T01:02:04.729Z,18.62
2022-08-01T01:03:04.425Z,18.62
2022-08-01T01:04:08.484Z,18.62
2022-08-01T01:05:04.458Z,18.56
2022-08-01T01:06:03.597Z,18.56
2022-08-01T01:07:03.501Z,18.56
2022-08-01T01:08:03.684Z,18.56
2022-08-01T01:09:03.696Z,18.56
2022-08-01T01:10:03.690Z,18.56
2022-08-01T01:11:03.723Z,18.56
2022-08-01T01:12:04.001Z,18.50
2022-08-01T01:13:03.580Z,18.50
2022-08-01T01:14:03.672Z,18.50
2022-08-01T01:15:03.581Z,18.50
2022-08-01T01:16:04.321Z,18.50
2022-08-01T01:17:04.319Z,18.50
2022-08-01T01:18:04.260Z,18.50
2022-08-01T01:19:04.397Z,18.50
2022-08-01T01:20:04.480Z,18.50
2022-08-01T01:21:03.834Z,18.50
2022-08-01T01:22:03.810Z,18.50
2022-08-01T01:23:03.595Z,18.50
2022-08-01T01:24:03.593Z,18.50
2022-08-01T01:25:03.673Z,18.50
2022-08-01T01:26:03.680Z,18.50
2022-08-01T01:27:03.595Z,18.50
2022-08-01T01:28:03.587Z,18.50
2022-08-01T01:29:03.585Z,18.50
2022-08-01T01:30:03.676Z,18.50
2022-08-01T01:31:03.511Z,18.50
2022-08-01T01:32:04.581Z,18.44
2022-08-01T01:33:04.299Z,18.44
2022-08-01T01:34:04.402Z,18.44
2022-08-01T01:35:04.420Z,18.44
2022-08-01T01:36:04.417Z,18.44
2022-08-01T01:37:04.308Z,18.44
2022-08-01T01:38:04.397Z,18.44
2022-08-01T01:39:05.591Z,18.44
2022-08-01T01:40:03.683Z,18.44
2022-08-01T01:41:03.682Z,18.44
2022-08-01T01:42:03.904Z,18.50
2022-08-01T01:43:04.097Z,18.50
2022-08-01T01:44:04.064Z,18.50
2022-08-01T01:45:04.163Z,18.50
2022-08-01T01:46:04.227Z,18.50
2022-08-01T01:47:04.199Z,18.50
2022-08-01T01:48:04.144Z,18.50
2022-08-01T01:49:04.394Z,18.50
2022-08-01T01:50:04.233Z,18.50
2022-08-01T01:51:04.332Z,18.50
2022-08-01T01:52:04.531Z,18.50
2022-08-01T01:53:04.308Z,18.50
2022-08-01T01:54:04.314Z,18.50
2022-08-01T01:55:04.318Z,18.50
2022-08-01T01:56:04.381Z,18.50
2022-08-01T01:57:04.428Z,18.50
2022-08-01T01:58:04.493Z,18.50
2022-08-01T01:59:04.397Z,18.50
2022-08-01T02:00:04.398Z,18.50
2022-08-01T02:01:04.405Z,18.50
2022-08-01T02:02:05.583Z,18.50
2022-08-01T02:03:03.681Z,18.50
2022-08-01T02:04:03.680Z,18.50
2022-08-01T02:05:03.852Z,18.50
2022-08-01T02:06:03.756Z,18.50
2022-08-01T02:07:03.923Z,18.50
2022-08-01T02:08:03.918Z,18.50
2022-08-01T02:09:03.908Z,18.50
2022-08-01T02:10:03.941Z,18.50
2022-08-01T02:11:03.987Z,18.50
2022-08-01T02:12:07.707Z,18.50
2022-08-01T02:13:04.150Z,18.50
2022-08-01T02:14:04.306Z,18.50
2022-08-01T02:15:04.359Z,18.50
2022-08-01T02:16:04.401Z,18.50
2022-08-01T02:17:04.386Z,18.50
2022-08-01T02:18:04.327Z,18.50
2022-08-01T02:19:04.406Z,18.50
2022-08-01T02:20:04.397Z,18.50
2022-08-01T02:21:03.677Z,18.50
2022-08-01T02:22:03.912Z,18.50
2022-08-01T02:23:03.755Z,18.50
2022-08-01T02:24:05.923Z,18.50
2022-08-01T02:25:03.760Z,18.50
2022-08-01T02:26:10.129Z,18.50
2022-08-01T02:27:03.761Z,18.50
2022-08-01T02:28:03.756Z,18.56
2022-08-01T02:29:03.748Z,18.50
2022-08-01T02:30:03.854Z,18.50
2022-08-01T02:31:03.917Z,18.56
2022-08-01T02:32:04.232Z,18.56
2022-08-01T02:33:03.857Z,18.50
2022-08-01T02:34:04.001Z,18.50
2022-08-01T02:35:03.929Z,18.56
2022-08-01T02:36:29.203Z,18.50
2022-08-01T02:37:03.911Z,18.50
2022-08-01T02:38:04.158Z,18.50
2022-08-01T02:39:04.149Z,18.50
2022-08-01T02:40:04.070Z,18.50
2022-08-01T02:41:04.073Z,18.44
2022-08-01T02:42:04.659Z,18.44
2022-08-01T02:43:04.404Z,18.44
2022-08-01T02:44:04.354Z,18.44
2022-08-01T02:45:04.312Z,18.44
2022-08-01T02:46:04.319Z,18.44
2022-08-01T02:47:04.254Z,18.44
2022-08-01T02:48:04.334Z,18.44
2022-08-01T02:49:04.275Z,18.44
2022-08-01T02:50:04.316Z,18.44
2022-08-01T02:51:04.876Z,18.44
2022-08-01T02:52:04.534Z,18.44
2022-08-01T02:53:03.600Z,18.44
2022-08-01T02:54:03.506Z,18.44
2022-08-01T02:55:03.783Z,18.44
2022-08-01T02:56:03.742Z,18.44
2022-08-01T02:57:03.798Z,18.44
2022-08-01T02:58:03.993Z,18.44
2022-08-01T02:59:03.920Z,18.44
2022-08-01T03:00:03.989Z,18.44
2022-08-01T03:01:04.148Z,18.44
2022-08-01T03:02:04.180Z,18.44
2022-08-01T03:03:04.082Z,18.44
2022-08-01T03:04:04.160Z,18.44
2022-08-01T03:05:04.075Z,18.44
2022-08-01T03:06:04.154Z,18.44
2022-08-01T03:07:04.156Z,18.44
2022-08-01T03:08:04.166Z,18.44
2022-08-01T03:09:04.246Z,18.44
2022-08-01T03:10:04.246Z,18.44
2022-08-01T03:11:04.241Z,18.44
2022-08-01T03:12:04.465Z,18.44
2022-08-01T03:13:04.229Z,18.44
2022-08-01T03:14:04.398Z,18.44
2022-08-01T03:15:04.405Z,18.50
2022-08-01T03:16:03.514Z,18.50
2022-08-01T03:17:03.666Z,18.50
2022-08-01T03:18:03.674Z,18.50
2022-08-01T03:19:03.593Z,18.50
2022-08-01T03:20:03.683Z,18.50
2022-08-01T03:21:03.755Z,18.50
2022-08-01T03:22:04.018Z,18.50
2022-08-01T03:23:03.907Z,18.50
2022-08-01T03:24:03.927Z,18.50
2022-08-01T03:25:03.917Z,18.50
2022-08-01T03:26:03.831Z,18.50
2022-08-01T03:27:03.854Z,18.50
2022-08-01T03:28:03.832Z,18.50
2022-08-01T03:29:03.776Z,18.50
2022-08-01T03:30:03.828Z,18.50
2022-08-01T03:31:03.919Z,18.56
2022-08-01T03:32:04.237Z,18.56
2022-08-01T03:33:03.910Z,18.56
2022-08-01T03:34:05.835Z,18.56
2022-08-01T03:35:04.206Z,18.56
2022-08-01T03:36:04.081Z,18.56
2022-08-01T03:37:04.088Z,18.56
2022-08-01T03:38:15.650Z,18.56
2022-08-01T03:39:04.170Z,18.56
2022-08-01T03:40:04.084Z,18.62
2022-08-01T03:41:04.249Z,18.62
2022-08-01T03:42:04.082Z,18.62
2022-08-01T03:43:04.076Z,18.62
2022-08-01T03:44:04.177Z,18.62
2022-08-01T03:45:04.177Z,18.62
2022-08-01T03:46:03.533Z,18.62
2022-08-01T03:47:03.522Z,18.62
2022-08-01T03:48:04.478Z,18.62
2022-08-01T03:49:03.570Z,18.62
2022-08-01T03:50:03.525Z,18.69
2022-08-01T03:51:03.599Z,18.69
2022-08-01T03:52:03.910Z,18.69
2022-08-01T03:53:03.752Z,18.69
2022-08-01T03:54:03.771Z,18.69
2022-08-01T03:55:03.756Z,18.69
2022-08-01T03:56:03.764Z,18.69
2022-08-01T03:57:03.871Z,18.69
2022-08-01T03:58:07.114Z,18.69
2022-08-01T03:59:03.913Z,18.69
2022-08-01T04:00:04.078Z,18.75
2022-08-01T04:01:04.213Z,18.75
2022-08-01T04:02:04.335Z,18.75
2022-08-01T04:03:04.147Z,18.75
2022-08-01T04:04:04.145Z,18.75
2022-08-01T04:05:04.224Z,18.81
2022-08-01T04:06:04.327Z,18.81
2022-08-01T04:07:04.470Z,18.81
2022-08-01T04:08:04.408Z,18.81
2022-08-01T04:09:04.491Z,18.81
2022-08-01T04:10:04.483Z,18.88
2022-08-01T04:11:03.557Z,18.88
2022-08-01T04:12:12.027Z,18.88
2022-08-01T04:13:03.600Z,18.88
2022-08-01T04:14:04.412Z,18.88
2022-08-01T04:15:04.442Z,18.88
2022-08-01T04:16:03.517Z,18.94
2022-08-01T04:17:03.511Z,18.94
2022-08-01T04:18:03.586Z,18.94
2022-08-01T04:19:03.767Z,18.94
2022-08-01T04:20:03.685Z,18.94
2022-08-01T04:21:03.838Z,19.00
2022-08-01T04:22:03.906Z,19.00
2022-08-01T04:23:03.921Z,19.00
2022-08-01T04:24:03.912Z,19.00
2022-08-01T04:25:04.115Z,19.00
2022-08-01T04:26:04.157Z,19.06
2022-08-01T04:27:04.065Z,19.06
2022-08-01T04:28:04.167Z,19.06
2022-08-01T04:29:04.048Z,19.06
2022-08-01T04:30:04.078Z,19.12
2022-08-01T04:31:04.073Z,19.12
2022-08-01T04:32:04.363Z,19.12
2022-08-01T04:33:04.083Z,19.12
2022-08-01T04:34:04.954Z,19.19
2022-08-01T04:35:04.084Z,19.19
2022-08-01T04:36:04.956Z,19.19
2022-08-01T04:37:03.515Z,19.25
2022-08-01T04:38:03.673Z,19.25
2022-08-01T04:39:03.603Z,19.25
2022-08-01T04:40:03.586Z,19.25
2022-08-01T04:41:03.978Z,19.31
2022-08-01T04:42:03.736Z,19.31
2022-08-01T04:43:03.750Z,19.38
2022-08-01T04:44:03.669Z,19.38
2022-08-01T04:45:03.665Z,19.38
2022-08-01T04:46:03.761Z,19.44
2022-08-01T04:47:03.665Z,19.44
2022-08-01T04:48:03.752Z,19.44
2022-08-01T04:49:03.739Z,19.50
2022-08-01T04:50:03.666Z,19.50
2022-08-01T04:51:03.755Z,19.50
2022-08-01T04:52:04.169Z,19.56
2022-08-01T04:53:03.823Z,19.56
2022-08-01T04:54:03.830Z,19.56
2022-08-01T04:55:03.832Z,19.62
2022-08-01T04:56:03.824Z,19.62
2022-08-01T04:57:04.036Z,19.69
2022-08-01T04:58:04.235Z,19.69
2022-08-01T04:59:04.151Z,19.69
2022-08-01T05:00:04.078Z,19.75
2022-08-01T05:01:04.376Z,19.75
2022-08-01T05:02:04.390Z,19.75
2022-08-01T05:03:04.308Z,19.81
2022-08-01T05:04:04.319Z,19.81
2022-08-01T05:05:04.390Z,19.81
2022-08-01T05:06:04.306Z,19.88
2022-08-01T05:07:04.312Z,19.88
2022-08-01T05:08:04.379Z,19.88
2022-08-01T05:09:03.841Z,19.88
2022-08-01T05:10:03.553Z,19.94
2022-08-01T05:11:03.509Z,19.94
2022-08-01T05:12:03.781Z,20.00
2022-08-01T05:13:03.665Z,20.00
2022-08-01T05:14:04.146Z,20.06
2022-08-01T05:15:04.233Z,20.06
2022-08-01T05:16:04.232Z,20.12
2022-08-01T05:17:04.255Z,20.12
2022-08-01T05:18:04.238Z,20.19
2022-08-01T05:19:04.304Z,20.19
2022-08-01T05:20:04.300Z,20.25
2022-08-01T05:21:04.461Z,20.25
2022-08-01T05:22:04.656Z,20.31
2022-08-01T05:23:04.555Z,20.31
2022-08-01T05:24:04.483Z,20.38
2022-08-01T05:25:03.518Z,20.38
2022-08-01T05:26:03.504Z,20.44
2022-08-01T05:27:03.618Z,20.50
2022-08-01T05:28:03.690Z,20.50
2022-08-01T05:29:03.827Z,20.56
2022-08-01T05:30:03.834Z,20.69
2022-08-01T05:31:03.852Z,20.88
2022-08-01T05:32:04.091Z,20.88
2022-08-01T05:33:03.774Z,20.88
2022-08-01T05:34:04.398Z,20.88
2022-08-01T05:35:04.011Z,20.94
2022-08-01T05:36:03.929Z,20.94
2022-08-01T05:37:03.925Z,20.94
2022-08-01T05:38:04.467Z,21.00
2022-08-01T05:39:03.666Z,21.00
2022-08-01T05:40:03.587Z,21.00
2022-08-01T05:41:03.675Z,21.00
2022-08-01T05:42:03.804Z,21.06
2022-08-01T05:43:03.694Z,21.06
2022-08-01T05:44:03.600Z,21.06
2022-08-01T05:45:03.684Z,21.12
2022-08-01T05:46:03.763Z,21.12
2022-08-01T05:47:03.761Z,21.12
2022-08-01T05:48:03.754Z,21.12
2022-08-01T05:49:03.815Z,21.19
2022-08-01T05:50:03.672Z,21.19
2022-08-01T05:51:03.682Z,21.19
2022-08-01T05:52:04.216Z,21.25
2022-08-01T05:53:03.741Z,21.25
2022-08-01T05:54:03.839Z,21.25
2022-08-01T05:55:03.748Z,21.25
2022-08-01T05:56:03.843Z,21.31
2022-08-01T05:57:03.832Z,21.31
2022-08-01T05:58:03.667Z,21.31
2022-08-01T05:59:04.081Z,21.31
2022-08-01T06:00:04.226Z,21.31
2022-08-01T06:01:04.147Z,21.31
2022-08-01T06:02:04.595Z,21.31
2022-08-01T06:03:04.317Z,21.31
2022-08-01T06:04:04.393Z,21.31
2022-08-01T06:05:04.393Z,21.31
2022-08-01T06:06:04.232Z,21.31
2022-08-01T06:07:04.313Z,21.38
2022-08-01T06:08:04.156Z,21.38
2022-08-01T06:09:04.228Z,21.38
2022-08-01T06:10:04.307Z,21.38
2022-08-01T06:11:04.314Z,21.38
2022-08-01T06:12:04.584Z,21.38
2022-08-01T06:13:04.271Z,21.38
2022-08-01T06:14:04.317Z,21.38
2022-08-01T06:15:04.357Z,21.38
2022-08-01T06:16:04.351Z,21.38
2022-08-01T06:17:04.478Z,21.44
2022-08-01T06:18:03.508Z,21.44
2022-08-01T06:19:03.587Z,21.44
2022-08-01T06:20:03.673Z,21.44
2022-08-01T06:21:03.677Z,21.44
2022-08-01T06:22:04.043Z,21.44
2022-08-01T06:23:12.079Z,21.50
2022-08-01T06:24:03.680Z,21.50
2022-08-01T06:25:03.697Z,21.50
2022-08-01T06:26:03.758Z,21.50
2022-08-01T06:27:03.705Z,21.50
2022-08-01T06:28:03.589Z,21.50
2022-08-01T06:29:03.685Z,21.56
2022-08-01T06:30:03.666Z,21.56
2022-08-01T06:31:03.769Z,21.56
2022-08-01T06:32:04.034Z,21.62
2022-08-01T06:33:03.757Z,21.62
2022-08-01T06:34:03.670Z,21.62
2022-08-01T06:35:03.674Z,21.62
2022-08-01T06:36:03.677Z,21.62
2022-08-01T06:37:05.743Z,21.62
2022-08-01T06:38:03.681Z,21.69
2022-08-01T06:39:03.671Z,21.69
2022-08-01T06:40:03.668Z,21.69
2022-08-01T06:41:03.759Z,21.75
2022-08-01T06:42:04.247Z,21.75
2022-08-01T06:43:03.927Z,21.75
2022-08-01T06:44:03.845Z,21.81
2022-08-01T06:45:03.828Z,21.81
2022-08-01T06:46:03.752Z,21.81
2022-08-01T06:47:03.773Z,21.81
2022-08-01T06:48:03.750Z,21.81
2022-08-01T06:49:03.816Z,21.88
2022-08-01T06:50:03.764Z,21.88
2022-08-01T06:51:03.599Z,21.88
2022-08-01T06:52:03.923Z,21.94
2022-08-01T06:53:03.764Z,21.94
2022-08-01T06:54:03.748Z,21.94
2022-08-01T06:55:04.256Z,22.00
2022-08-01T06:56:04.306Z,22.00
2022-08-01T06:57:04.158Z,22.00
2022-08-01T06:58:04.228Z,22.06
2022-08-01T06:59:04.161Z,22.06
2022-08-01T07:00:04.154Z,22.06
2022-08-01T07:01:04.394Z,22.12
2022-08-01T07:02:04.709Z,22.12
2022-08-01T07:03:04.398Z,22.12
2022-08-01T07:04:04.476Z,22.19
2022-08-01T07:05:04.405Z,22.19
2022-08-01T07:06:04.463Z,22.19
2022-08-01T07:07:04.395Z,22.19
2022-08-01T07:08:04.390Z,22.25
2022-08-01T07:09:08.384Z,22.25
2022-08-01T07:10:03.591Z,22.31
2022-08-01T07:11:03.775Z,22.31
2022-08-01T07:12:04.061Z,22.31
2022-08-01T07:13:03.680Z,22.38
2022-08-01T07:14:03.683Z,22.38
2022-08-01T07:15:03.831Z,22.44
2022-08-01T07:16:03.829Z,22.44
2022-08-01T07:17:03.904Z,22.44
2022-08-01T07:18:03.987Z,22.50
2022-08-01T07:19:04.069Z,22.50
2022-08-01T07:20:03.989Z,22.50
2022-08-01T07:21:04.834Z,22.50
2022-08-01T07:22:04.229Z,22.56
2022-08-01T07:23:04.061Z,22.56
2022-08-01T07:24:09.189Z,22.56
2022-08-01T07:25:04.401Z,22.56
2022-08-01T07:26:04.477Z,22.62
2022-08-01T07:27:21.297Z,22.62
2022-08-01T07:28:04.477Z,22.62
2022-08-01T07:29:04.393Z,22.62
2022-08-01T07:30:04.404Z,22.62
2022-08-01T07:31:04.404Z,22.62
2022-08-01T07:32:04.580Z,22.62
2022-08-01T07:33:04.477Z,22.69
2022-08-01T07:34:04.394Z,22.69
2022-08-01T07:35:04.465Z,22.69
2022-08-01T07:36:04.485Z,22.69
2022-08-01T07:37:04.398Z,22.69
2022-08-01T07:38:04.393Z,22.69
2022-08-01T07:39:04.312Z,22.75
2022-08-01T07:40:04.478Z,22.75
2022-08-01T07:41:04.471Z,22.75
2022-08-01T07:42:06.943Z,22.75
2022-08-01T07:43:04.392Z,22.75
2022-08-01T07:44:04.843Z,22.81
2022-08-01T07:45:04.470Z,22.81
2022-08-01T07:46:04.474Z,22.81
2022-08-01T07:47:03.516Z,22.88
2022-08-01T07:48:04.414Z,22.81
2022-08-01T07:49:04.450Z,22.88
2022-08-01T07:50:04.558Z,22.88
2022-08-01T07:51:03.440Z,22.88
2022-08-01T07:52:04.571Z,22.88
2022-08-01T07:53:03.596Z,22.94
2022-08-01T07:54:03.601Z,22.94
2022-08-01T07:55:03.760Z,22.94
2022-08-01T07:56:03.761Z,22.94
2022-08-01T07:57:03.765Z,22.94
2022-08-01T07:58:03.664Z,22.94
2022-08-01T07:59:03.837Z,22.94
2022-08-01T08:00:03.743Z,22.94
2022-08-01T08:01:03.747Z,22.94
2022-08-01T08:02:04.214Z,22.88
2022-08-01T08:03:03.836Z,22.88
2022-08-01T08:04:03.930Z,22.81
2022-08-01T08:05:03.931Z,22.81
2022-08-01T08:06:03.908Z,22.75
2022-08-01T08:07:04.193Z,22.69
2022-08-01T08:08:03.918Z,22.62
2022-08-01T08:09:03.834Z,22.56
2022-08-01T08:10:03.773Z,22.50
2022-08-01T08:11:03.686Z,22.50
2022-08-01T08:12:03.967Z,22.50
2022-08-01T08:13:03.670Z,22.44
2022-08-01T08:14:03.755Z,22.38
2022-08-01T08:15:03.675Z,22.38
2022-08-01T08:16:03.592Z,22.31
2022-08-01T08:17:03.792Z,22.31
2022-08-01T08:18:03.911Z,22.25
2022-08-01T08:19:04.002Z,22.25
2022-08-01T08:20:03.832Z,22.19
2022-08-01T08:21:06.553Z,22.19
2022-08-01T08:22:04.258Z,22.12
2022-08-01T08:23:04.079Z,22.12
2022-08-01T08:24:04.075Z,22.12
2022-08-01T08:25:04.165Z,22.12
2022-08-01T08:26:04.070Z,22.12
2022-08-01T08:27:04.079Z,22.12
2022-08-01T08:28:04.073Z,22.06
2022-08-01T08:29:04.145Z,22.06
2022-08-01T08:30:04.226Z,22.06
2022-08-01T08:31:04.238Z,22.06
2022-08-01T08:32:04.300Z,22.00
2022-08-01T08:33:04.074Z,22.00
2022-08-01T08:34:04.155Z,22.00
2022-08-01T08:35:04.237Z,22.00
2022-08-01T08:36:03.592Z,21.94
2022-08-01T08:37:03.580Z,21.94
2022-08-01T08:38:03.677Z,21.94
2022-08-01T08:39:03.588Z,21.94
2022-08-01T08:40:03.585Z,21.88
2022-08-01T08:41:03.590Z,21.88
2022-08-01T08:42:03.598Z,21.94
2022-08-01T08:43:03.517Z,21.88
2022-08-01T08:44:03.508Z,21.88
2022-08-01T08:45:04.462Z,21.88
2022-08-01T08:46:04.492Z,21.88
2022-08-01T08:47:04.467Z,21.88
2022-08-01T08:48:04.389Z,21.88
2022-08-01T08:49:04.547Z,21.88
2022-08-01T08:50:04.432Z,21.81
2022-08-01T08:51:04.392Z,21.88
2022-08-01T08:52:04.728Z,21.88
2022-08-01T08:53:06.498Z,21.94
2022-08-01T08:54:04.338Z,21.94
2022-08-01T08:55:04.310Z,21.94
2022-08-01T08:56:04.393Z,22.00
2022-08-01T08:57:04.390Z,22.00
2022-08-01T08:58:03.513Z,22.06
2022-08-01T08:59:03.588Z,22.19
2022-08-01T09:00:03.606Z,22.25
2022-08-01T09:01:03.536Z,22.31
2022-08-01T09:02:03.605Z,22.44
2022-08-01T09:03:03.586Z,22.50
2022-08-01T09:04:03.669Z,22.62
2022-08-01T09:05:03.755Z,22.75
2022-08-01T09:06:03.747Z,22.88
2022-08-01T09:07:03.754Z,23.00
2022-08-01T09:08:03.747Z,23.06
2022-08-01T09:09:03.915Z,23.19
2022-08-01T09:10:03.830Z,23.31
2022-08-01T09:11:03.749Z,23.38
2022-08-01T09:12:03.878Z,23.50
2022-08-01T09:13:04.466Z,23.62
2022-08-01T09:14:03.524Z,23.75
2022-08-01T09:15:03.512Z,23.88
2022-08-01T09:16:03.437Z,23.94
2022-08-01T09:17:04.385Z,24.06
2022-08-01T09:18:03.593Z,24.12
2022-08-01T09:19:03.531Z,24.25
2022-08-01T09:20:03.672Z,24.25
2022-08-01T09:21:03.849Z,24.38
2022-08-01T09:22:03.990Z,24.44
2022-08-01T09:23:03.754Z,24.50
2022-08-01T09:24:03.842Z,24.50
2022-08-01T09:25:03.821Z,24.56
2022-08-01T09:26:03.909Z,24.62
2022-08-01T09:27:03.602Z,24.69
2022-08-01T09:28:03.667Z,24.75
2022-08-01T09:29:03.746Z,24.81
2022-08-01T09:30:03.751Z,24.88
2022-08-01T09:31:03.843Z,24.94
2022-08-01T09:32:04.292Z,25.00
2022-08-01T09:33:06.455Z,25.00
2022-08-01T09:34:03.987Z,25.06
2022-08-01T09:35:03.989Z,25.12
2022-08-01T09:36:03.902Z,25.12
2022-08-01T09:37:04.072Z,25.19
2022-08-01T09:38:03.996Z,25.19
2022-08-01T09:39:03.989Z,25.25
2022-08-01T09:40:03.981Z,25.31
2022-08-01T09:41:03.592Z,25.31
2022-08-01T09:42:03.594Z,25.44
2022-08-01T09:43:03.687Z,25.38
2022-08-01T09:44:03.753Z,25.44
2022-08-01T09:45:03.916Z,25.50
2022-08-01T09:46:03.917Z,25.56
2022-08-01T09:47:07.521Z,25.56
2022-08-01T09:48:03.830Z,25.62
2022-08-01T09:49:07.283Z,25.69
2022-08-01T09:50:07.470Z,25.75
2022-08-01T09:51:07.437Z,25.75
2022-08-01T09:52:03.982Z,25.75
2022-08-01T09:53:04.091Z,25.75
2022-08-01T09:54:04.074Z,25.88
2022-08-01T09:55:04.083Z,25.88
2022-08-01T09:56:04.145Z,25.94
2022-08-01T09:57:04.423Z,25.94
2022-08-01T09:58:04.260Z,26.06
2022-08-01T09:59:04.227Z,26.12
2022-08-01T10:00:04.325Z,26.12
2022-08-01T10:01:04.479Z,26.12
2022-08-01T10:02:04.493Z,26.12
2022-08-01T10:03:10.182Z,26.12
2022-08-01T10:04:03.524Z,26.12
2022-08-01T10:05:03.981Z,26.12
2022-08-01T10:06:03.507Z,26.19
2022-08-01T10:07:03.653Z,26.19
2022-08-01T10:08:07.677Z,26.19
2022-08-01T10:09:04.761Z,26.25
2022-08-01T10:10:04.544Z,26.19
2022-08-01T10:11:04.416Z,26.19
2022-08-01T10:12:04.476Z,26.25
2022-08-01T10:13:04.482Z,26.25
2022-08-01T10:14:04.478Z,26.25
2022-08-01T10:15:03.524Z,26.25
2022-08-01T10:16:03.459Z,26.19
2022-08-01T10:17:03.686Z,26.25
2022-08-01T10:18:03.675Z,26.25
2022-08-01T10:19:03.766Z,26.31
2022-08-01T10:20:03.751Z,26.31
2022-08-01T10:21:03.756Z,26.31
2022-08-01T10:22:03.664Z,26.25
2022-08-01T10:23:05.739Z,26.31
2022-08-01T10:24:03.710Z,26.31
2022-08-01T10:25:03.602Z,26.31
2022-08-01T10:26:03.972Z,26.38
2022-08-01T10:27:05.737Z,26.31
2022-08-01T10:28:04.394Z,26.31
2022-08-01T10:29:04.398Z,26.31
2022-08-01T10:30:06.920Z,26.25
2022-08-01T10:31:04.083Z,26.19
2022-08-01T10:32:05.623Z,26.12
2022-08-01T10:33:04.161Z,26.12
2022-08-01T10:34:04.144Z,26.12
2022-08-01T10:35:06.427Z,26.12
2022-08-01T10:36:04.172Z,26.12
2022-08-01T10:37:05.455Z,26.06
2022-08-01T10:38:04.227Z,26.00
2022-08-01T10:39:04.067Z,25.94
2022-08-01T10:40:28.648Z,25.94
2022-08-01T10:41:06.186Z,25.88
2022-08-01T10:42:06.813Z,25.88
2022-08-01T10:43:03.991Z,25.81
2022-08-01T10:44:03.914Z,25.81
2022-08-01T10:45:04.763Z,25.75
2022-08-01T10:46:04.010Z,25.75
2022-08-01T10:47:04.208Z,25.75
2022-08-01T10:48:04.090Z,25.75
2022-08-01T10:49:04.088Z,25.75
2022-08-01T10:50:04.164Z,25.75
2022-08-01T10:51:04.143Z,25.75
2022-08-01T10:52:04.158Z,25.69
2022-08-01T10:53:05.602Z,25.69
2022-08-01T10:54:04.157Z,25.69
2022-08-01T10:55:04.246Z,25.69
2022-08-01T10:56:04.232Z,25.69
2022-08-01T10:57:04.660Z,25.69
2022-08-01T10:58:04.313Z,25.69
2022-08-01T10:59:05.913Z,25.69
2022-08-01T11:00:04.307Z,25.69
2022-08-01T11:01:04.363Z,25.69
2022-08-01T11:02:04.493Z,25.69
2022-08-01T11:03:03.587Z,25.75
2022-08-01T11:04:03.997Z,25.75
2022-08-01T11:05:04.194Z,25.81
2022-08-01T11:06:03.531Z,25.81
2022-08-01T11:07:04.084Z,25.81
2022-08-01T11:08:03.519Z,25.88
2022-08-01T11:09:03.605Z,25.88
2022-08-01T11:10:03.682Z,25.94
2022-08-01T11:11:03.512Z,25.94
2022-08-01T11:12:05.701Z,26.00
2022-08-01T11:13:03.598Z,26.00
2022-08-01T11:14:03.608Z,26.06
2022-08-01T11:15:03.639Z,26.06
2022-08-01T11:16:06.010Z,26.06
2022-08-01T11:17:03.993Z,26.12
2022-08-01T11:18:04.434Z,26.19
2022-08-01T11:19:03.777Z,26.19
2022-08-01T11:20:03.696Z,26.19
2022-08-01T11:21:56.696Z,26.19
2022-08-01T11:22:02.560Z,26.19
2022-08-01T11:23:03.771Z,26.12
2022-08-01T11:24:03.602Z,26.19
2022-08-01T11:25:03.530Z,26.19
2022-08-01T11:26:06.867Z,26.19
2022-08-01T11:27:03.838Z,26.25
2022-08-01T11:28:03.582Z,26.25
2022-08-01T11:29:19.249Z,26.25
2022-08-01T11:30:03.683Z,26.25
2022-08-01T11:31:07.508Z,26.25
2022-08-01T11:32:03.742Z,26.19
2022-08-01T11:33:10.942Z,26.19
2022-08-01T11:34:03.678Z,26.25
2022-08-01T11:35:03.757Z,26.25
2022-08-01T11:36:03.745Z,26.25
2022-08-01T11:37:03.785Z,26.19
2022-08-01T11:38:03.739Z,26.19
2022-08-01T11:39:03.911Z,26.19
2022-08-01T11:40:03.912Z,26.19
2022-08-01T11:41:04.008Z,26.19
2022-08-01T11:42:03.990Z,26.25
2022-08-01T11:43:03.923Z,26.25
2022-08-01T11:44:03.998Z,26.31
2022-08-01T11:45:03.987Z,26.31
2022-08-01T11:46:03.900Z,26.31
2022-08-01T11:47:07.236Z,26.31
2022-08-01T11:48:04.004Z,26.31
2022-08-01T11:49:04.011Z,26.31
2022-08-01T11:50:03.933Z,26.38
2022-08-01T11:51:03.927Z,26.44
2022-08-01T11:52:04.188Z,26.50
2022-08-01T11:53:03.915Z,26.56
2022-08-01T11:54:03.819Z,26.62
2022-08-01T11:55:03.835Z,26.69
2022-08-01T11:56:03.908Z,26.69
2022-08-01T11:57:04.111Z,26.69
2022-08-01T11:58:04.727Z,26.75
2022-08-01T11:59:04.024Z,26.69
2022-08-01T12:00:04.533Z,26.69
2022-08-01T12:01:03.983Z,26.75
2022-08-01T12:02:04.101Z,26.75
2022-08-01T12:03:04.402Z,26.75
2022-08-01T12:04:04.150Z,26.81
2022-08-01T12:05:04.859Z,26.81
2022-08-01T12:06:04.178Z,26.88
2022-08-01T12:07:04.386Z,26.88
2022-08-01T12:08:04.376Z,26.94
2022-08-01T12:09:04.229Z,26.94
2022-08-01T12:10:04.258Z,26.94
2022-08-01T12:11:04.157Z,26.94
2022-08-01T12:12:04.229Z,27.00
2022-08-01T12:13:04.226Z,27.00
2022-08-01T12:14:03.759Z,26.94
2022-08-01T12:15:03.760Z,26.94
2022-08-01T12:16:04.075Z,27.00
2022-08-01T12:17:03.853Z,27.00
2022-08-01T12:18:05.378Z,27.06
2022-08-01T12:19:03.505Z,27.06
2022-08-01T12:20:03.593Z,27.06
2022-08-01T12:21:04.314Z,27.06
2022-08-01T12:22:04.319Z,27.12
2022-08-01T12:23:04.466Z,27.12
2022-08-01T12:24:04.514Z,27.12
2022-08-01T12:25:04.477Z,27.12
2022-08-01T12:26:03.510Z,27.12
2022-08-01T12:27:04.005Z,27.06
2022-08-01T12:28:03.670Z,27.06
2022-08-01T12:29:03.672Z,27.06
2022-08-01T12:30:03.744Z,27.12
2022-08-01T12:31:03.750Z,27.12
2022-08-01T12:32:03.841Z,27.12
2022-08-01T12:33:03.757Z,27.19
2022-08-01T12:34:03.761Z,27.25
2022-08-01T12:35:03.745Z,27.25
2022-08-01T12:36:03.667Z,27.31
2022-08-01T12:37:03.986Z,27.31
2022-08-01T12:38:04.377Z,27.31
2022-08-01T12:39:03.910Z,27.31
2022-08-01T12:40:03.912Z,27.38
2022-08-01T12:41:03.831Z,27.38
2022-08-01T12:42:04.004Z,27.44
2022-08-01T12:43:03.828Z,27.44
2022-08-01T12:44:03.904Z,27.50
2022-08-01T12:45:04.466Z,27.50
2022-08-01T12:46:04.386Z,27.50
2022-08-01T12:47:04.599Z,27.50
2022-08-01T12:48:04.307Z,27.50
2022-08-01T12:49:04.433Z,27.56
2022-08-01T12:50:04.393Z,27.56
2022-08-01T12:51:04.375Z,27.62
2022-08-01T12:52:03.521Z,27.62